Time;durP1;ratioP1;P1;durP2;ratioP2;P2;SDS_P1;SDS_P2;PMS_P1;PMS_P2;Temp;Humidity;BMP_temperature;BMP_pressure;BME280_temperature;BME280_humidity;BME280_pressure;Samples;Min_cycle;Max_cycle;Signal;HPM_P1;HPM_P2
2023/03/27 00:02:19;;;;;;;;;;;;;;;8.60;100.00;98761.47;5596412;31;33297;-66
2023/03/27 00:05:27;;;;;;;;;;;;;;;8.62;100.00;98754.16;5609509;31;34893;-66
2023/03/27 00:08:37;;;;;;;;;;;;;;;8.61;100.00;98757.00;5608542;31;34492;-65
2023/03/27 00:11:45;;;;;;;;;;;;;;;8.57;100.00;98750.44;5608155;31;34163;-66
2023/03/27 00:14:54;;;;;;;;;;;;;;;8.57;100.00;98748.63;5608542;31;34179;-66
2023/03/27 00:18:02;;;;;;;;;;;;;;;8.55;100.00;98737.44;5609320;31;33852;-65
2023/03/27 00:21:10;;;;;;;;;;;;;;;8.55;100.00;98736.63;5608731;31;33862;-65
2023/03/27 00:24:18;;;;;;;;;;;;;;;8.59;100.00;98722.81;5608496;31;33908;-65
2023/03/27 00:27:27;;;;;;;;;;;;;;;8.57;100.00;98727.47;5608540;31;35046;-65
2023/03/27 00:30:36;;;;;;;;;;;;;;;8.53;100.00;98726.25;5607809;31;32943;-66
2023/03/27 00:33:48;;;;;;;;;;;;;;;8.54;100.00;98716.50;5608357;31;34961;-65
2023/03/27 00:37:04;;;;;;;;;;;;;;;8.51;100.00;98719.53;5609320;31;34362;-65
2023/03/27 00:40:18;;;;;;;;;;;;;;;8.48;100.00;98707.50;5608114;31;33123;-65
2023/03/27 00:43:28;;;;;;;;;;;;;;;8.43;100.00;98702.00;5595165;31;33685;-65
2023/03/27 00:46:42;;;;;;;;;;;;;;;8.43;100.00;98701.16;5595305;31;35449;-65
2023/03/27 00:49:50;;;;;;;;;;;;;;;8.41;100.00;98703.22;5608482;31;34242;-65
2023/03/27 00:53:03;;;;;;;;;;;;;;;8.38;100.00;98687.72;5608772;31;34315;-66
2023/03/27 00:56:10;;;;;;;;;;;;;;;8.39;100.00;98684.91;5608009;31;34229;-65
2023/03/27 00:59:18;;;;;;;;;;;;;;;8.42;100.00;98679.25;5607329;31;33431;-66
2023/03/27 01:02:27;;;;;;;;;;;;;;;8.44;100.00;98671.09;5608066;31;34226;-66
2023/03/27 01:05:35;;;;;;;;;;;;;;;8.44;100.00;98674.56;5610106;31;34836;-66
2023/03/27 01:08:44;;;;;;;;;;;;;;;8.35;100.00;98667.00;5597673;31;34232;-65
2023/03/27 01:12:09;;;;;;;;;;;;;;;8.35;100.00;98662.53;5610085;31;34507;-65
2023/03/27 01:15:27;;;;;;;;;;;;;;;8.37;100.00;98649.12;5610183;31;34796;-66
2023/03/27 01:18:57;;;;;;;;;;;;;;;8.25;100.00;98644.34;5610894;31;35035;-65
2023/03/27 01:22:18;;;;;;;;;;;;;;;8.26;100.00;98632.78;5611088;31;34951;-65
2023/03/27 01:25:32;;;;;;;;;;;;;;;8.32;100.00;98635.69;5611019;31;34584;-66
2023/03/27 01:29:01;;;;;;;;;;;;;;;8.33;100.00;98626.75;5607894;31;34866;-66
2023/03/27 01:32:40;;;;;;;;;;;;;;;8.31;100.00;98628.75;5602051;31;35027;-65
2023/03/27 01:35:56;;;;;;;;;;;;;;;8.29;100.00;98619.19;5599535;31;32918;-65
2023/03/27 01:39:19;;;;;;;;;;;;;;;8.32;100.00;98620.66;5609925;31;34367;-65
2023/03/27 01:42:32;;;;;;;;;;;;;;;8.28;100.00;98617.53;5597211;31;33587;-66
2023/03/27 01:45:44;;;;;;;;;;;;;;;8.13;100.00;98608.91;5609820;31;33522;-66
2023/03/27 01:48:53;;;;;;;;;;;;;;;8.09;100.00;98609.50;5609989;31;33795;-65
2023/03/27 01:52:05;;;;;;;;;;;;;;;8.14;100.00;98604.44;5610097;31;35531;-65
2023/03/27 01:55:18;;;;;;;;;;;;;;;8.18;100.00;98614.44;5609975;31;33849;-65
2023/03/27 01:58:29;;;;;;;;;;;;;;;8.28;100.00;98603.50;5597330;31;32897;-65
2023/03/27 02:01:39;;;;;;;;;;;;;;;8.23;100.00;98593.53;5609768;31;34021;-65
2023/03/27 02:04:50;;;;;;;;;;;;;;;8.19;100.00;98600.22;5597027;31;34503;-65
2023/03/27 02:08:40;;;;;;;;;;;;;;;8.22;100.00;98602.50;5609849;31;33845;-65
2023/03/27 02:11:56;;;;;;;;;;;;;;;8.22;100.00;98604.31;5504968;32;34054;-65
2023/03/27 02:15:06;;;;;;;;;;;;;;;8.13;100.00;98600.19;5529919;32;34100;-65
2023/03/27 02:18:35;;;;;;;;;;;;;;;8.05;100.00;98595.88;5530103;32;34410;-66
2023/03/27 02:21:47;;;;;;;;;;;;;;;8.10;100.00;98601.41;5504676;32;33664;-65
2023/03/27 02:24:55;;;;;;;;;;;;;;;8.09;100.00;98604.22;5504544;32;33793;-66
2023/03/27 02:28:21;;;;;;;;;;;;;;;8.11;100.00;98600.38;5517750;32;34228;-66
2023/03/27 02:31:35;;;;;;;;;;;;;;;8.20;100.00;98599.22;5518481;32;34168;-65
2023/03/27 02:34:49;;;;;;;;;;;;;;;8.09;100.00;98591.00;5517670;32;34279;-66
2023/03/27 02:38:17;;;;;;;;;;;;;;;8.05;100.00;98576.56;5518037;32;34890;-65
2023/03/27 02:41:36;;;;;;;;;;;;;;;7.93;100.00;98555.22;5536527;31;34468;-66
2023/03/27 02:44:52;;;;;;;;;;;;;;;7.86;100.00;98543.78;5610261;31;34278;-66
2023/03/27 02:48:14;;;;;;;;;;;;;;;7.87;100.00;98533.03;5609360;31;34275;-66
2023/03/27 02:51:46;;;;;;;;;;;;;;;7.93;100.00;98526.16;5609146;31;35396;-66
2023/03/27 02:55:03;;;;;;;;;;;;;;;7.96;100.00;98524.94;5607774;31;35613;-66
2023/03/27 02:58:16;;;;;;;;;;;;;;;7.96;100.00;98512.56;5609250;31;34336;-65
2023/03/27 03:01:29;;;;;;;;;;;;;;;7.82;100.00;98516.16;5609169;31;34405;-66
2023/03/27 03:04:45;;;;;;;;;;;;;;;7.83;100.00;98509.88;5596687;31;35577;-65
2023/03/27 03:07:56;;;;;;;;;;;;;;;7.82;100.00;98508.22;5609955;31;34883;-65
2023/03/27 03:11:10;;;;;;;;;;;;;;;7.86;100.00;98502.38;5596327;31;32413;-65
2023/03/27 03:14:25;;;;;;;;;;;;;;;7.80;100.00;98499.69;5608871;31;34289;-65
2023/03/27 03:17:35;;;;;;;;;;;;;;;7.72;100.00;98494.56;5609172;31;34727;-65
2023/03/27 03:20:44;;;;;;;;;;;;;;;7.69;100.00;98501.06;5609119;31;34292;-66
2023/03/27 03:23:55;;;;;;;;;;;;;;;7.70;100.00;98494.75;5609037;31;34473;-65
2023/03/27 03:27:07;;;;;;;;;;;;;;;7.69;100.00;98506.34;5608269;31;33962;-66
2023/03/27 03:30:17;;;;;;;;;;;;;;;7.72;100.00;98492.75;5596457;31;33612;-65
2023/03/27 03:33:26;;;;;;;;;;;;;;;7.68;100.00;98495.97;5609032;31;34271;-65
2023/03/27 03:36:35;;;;;;;;;;;;;;;7.71;100.00;98498.22;5609057;31;34825;-66
2023/03/27 03:39:42;;;;;;;;;;;;;;;7.73;100.00;98496.22;5609614;31;34483;-66
2023/03/27 03:42:52;;;;;;;;;;;;;;;7.74;100.00;98505.75;5609616;31;34393;-66
2023/03/27 03:46:06;;;;;;;;;;;;;;;7.84;100.00;98507.00;5596481;31;34772;-66
2023/03/27 03:49:17;;;;;;;;;;;;;;;7.95;100.00;98503.00;5608759;31;34699;-65
2023/03/27 03:52:26;;;;;;;;;;;;;;;7.92;100.00;98490.22;5608801;31;34692;-65
2023/03/27 03:55:38;;;;;;;;;;;;;;;7.87;100.00;98492.63;5595935;31;34677;-65
2023/03/27 03:58:46;;;;;;;;;;;;;;;7.80;100.00;98494.41;5609533;31;34440;-66
2023/03/27 04:01:59;;;;;;;;;;;;;;;7.80;100.00;98487.28;5608820;31;33733;-65
2023/03/27 04:05:09;;;;;;;;;;;;;;;7.86;100.00;98490.97;5609359;31;34247;-64
2023/03/27 04:08:16;;;;;;;;;;;;;;;7.76;100.00;98483.44;5477002;31;4094255;-65
2023/03/27 04:11:25;;;;;;;;;;;;;;;7.77;100.00;98485.06;5605654;31;34750;-66
2023/03/27 04:14:33;;;;;;;;;;;;;;;7.73;100.00;98480.38;5608803;31;33287;-66
2023/03/27 04:17:44;;;;;;;;;;;;;;;7.77;100.00;98486.88;5595587;31;33702;-66
2023/03/27 04:20:53;;;;;;;;;;;;;;;7.78;100.00;98488.50;5608067;31;34636;-66
2023/03/27 04:24:01;;;;;;;;;;;;;;;7.80;100.00;98491.75;5595756;31;32664;-66
2023/03/27 04:27:13;;;;;;;;;;;;;;;7.90;100.00;98488.75;5608115;31;33413;-66
2023/03/27 04:30:26;;;;;;;;;;;;;;;7.92;100.00;98486.75;5608149;31;33930;-65
2023/03/27 04:33:45;;;;;;;;;;;;;;;7.82;100.00;98495.03;5608432;31;32898;-66
2023/03/27 04:36:56;;;;;;;;;;;;;;;7.84;100.00;98483.25;5608182;31;34541;-66
2023/03/27 04:40:03;;;;;;;;;;;;;;;7.83;100.00;98484.28;5608907;31;34386;-65
2023/03/27 04:43:12;;;;;;;;;;;;;;;7.77;100.00;98487.69;5595704;31;33215;-66
2023/03/27 04:46:16;;;;;;;;;;;;;;;7.71;100.00;98487.66;5595159;31;32839;-67
2023/03/27 04:49:28;;;;;;;;;;;;;;;7.70;100.00;98486.03;5608225;31;34152;-66
2023/03/27 04:52:39;;;;;;;;;;;;;;;7.67;100.00;98479.31;5607656;31;35123;-67
2023/03/27 04:55:49;;;;;;;;;;;;;;;7.67;100.00;98476.69;5595753;31;35409;-67
2023/03/27 04:58:56;;;;;;;;;;;;;;;7.64;100.00;98474.44;5608317;31;34800;-67
2023/03/27 05:02:03;;;;;;;;;;;;;;;7.61;100.00;98476.63;5607811;31;34305;-67
2023/03/27 05:05:12;;;;;;;;;;;;;;;7.57;100.00;98468.31;5607856;31;34385;-67
2023/03/27 05:08:19;;;;;;;;;;;;;;;7.61;100.00;98464.25;5607718;31;34322;-67
2023/03/27 05:11:25;;;;;;;;;;;;;;;7.56;100.00;98458.75;5581860;31;33283;-68
2023/03/27 05:14:38;;;;;;;;;;;;;;;7.52;100.00;98459.34;5608724;31;34628;-68
2023/03/27 05:17:51;;;;;;;;;;;;;;;7.54;100.00;98455.50;5607296;31;34836;-67
2023/03/27 05:20:58;;;;;;;;;;;;;;;7.47;100.00;98454.66;5608143;31;34826;-68
2023/03/27 05:24:09;;;;;;;;;;;;;;;7.48;100.00;98455.47;5607204;31;34545;-66
2023/03/27 05:27:18;;;;;;;;;;;;;;;7.52;100.00;98456.69;5607346;31;35433;-66
2023/03/27 05:30:23;;;;;;;;;;;;;;;7.56;100.00;98457.94;5607201;31;35032;-67
2023/03/27 05:33:33;;;;;;;;;;;;;;;7.56;100.00;98447.38;5594312;31;33649;-67
2023/03/27 05:36:44;;;;;;;;;;;;;;;7.51;100.00;98441.88;5607373;31;34276;-67
2023/03/27 05:39:51;;;;;;;;;;;;;;;7.52;100.00;98452.25;5607485;31;34921;-67
2023/03/27 05:42:58;;;;;;;;;;;;;;;7.54;100.00;98442.31;5606922;31;34413;-68
2023/03/27 05:46:02;;;;;;;;;;;;;;;7.53;100.00;98437.22;5593452;31;34073;-66
2023/03/27 05:49:06;;;;;;;;;;;;;;;7.52;100.00;98432.97;5607743;31;34458;-66
2023/03/27 05:52:09;;;;;;;;;;;;;;;7.52;100.00;98425.84;5610360;31;34950;-67
2023/03/27 05:55:16;;;;;;;;;;;;;;;7.53;100.00;98434.59;5609912;31;34741;-67
2023/03/27 05:58:20;;;;;;;;;;;;;;;7.46;100.00;98431.09;5610062;31;35048;-67
2023/03/27 06:01:26;;;;;;;;;;;;;;;7.36;100.00;98419.06;5609437;31;35179;-67
2023/03/27 06:04:34;;;;;;;;;;;;;;;7.37;100.00;98417.25;5609743;31;34957;-65
2023/03/27 06:07:41;;;;;;;;;;;;;;;7.42;100.00;98420.12;5610050;31;34818;-66
2023/03/27 06:10:47;;;;;;;;;;;;;;;7.36;100.00;98413.81;5596470;31;33359;-67
2023/03/27 06:13:52;;;;;;;;;;;;;;;7.38;100.00;98414.44;5610216;31;34654;-66
2023/03/27 06:16:59;;;;;;;;;;;;;;;7.45;100.00;98417.13;5609530;31;34099;-66
2023/03/27 06:20:13;;;;;;;;;;;;;;;7.38;100.00;98411.78;5609612;31;34441;-65
2023/03/27 06:23:22;;;;;;;;;;;;;;;7.27;100.00;98411.50;5609628;31;34266;-67
2023/03/27 06:26:28;;;;;;;;;;;;;;;7.30;100.00;98411.16;5609215;31;34871;-67
2023/03/27 06:29:36;;;;;;;;;;;;;;;7.37;100.00;98414.63;5596308;31;35926;-66
2023/03/27 06:32:52;;;;;;;;;;;;;;;7.30;100.00;98417.25;5609254;31;34448;-65
2023/03/27 06:35:59;;;;;;;;;;;;;;;7.33;100.00;98405.47;5596448;31;32883;-66
2023/03/27 06:39:05;;;;;;;;;;;;;;;7.31;100.00;98404.88;5596503;31;34904;-66
2023/03/27 06:42:15;;;;;;;;;;;;;;;7.29;100.00;98404.22;5609141;31;33807;-66
2023/03/27 06:45:21;;;;;;;;;;;;;;;7.35;100.00;98403.47;5608362;31;33492;-66
2023/03/27 06:48:27;;;;;;;;;;;;;;;7.37;100.00;98411.97;5609141;31;32974;-67
2023/03/27 06:51:32;;;;;;;;;;;;;;;7.30;100.00;98406.69;5609673;31;34979;-66
2023/03/27 06:54:38;;;;;;;;;;;;;;;7.34;100.00;98405.28;5609120;31;34457;-66
2023/03/27 06:57:43;;;;;;;;;;;;;;;7.37;100.00;98412.78;5609117;31;34008;-65
2023/03/27 07:00:50;;;;;;;;;;;;;;;7.31;100.00;98410.16;5607566;31;35589;-66
2023/03/27 07:04:03;;;;;;;;;;;;;;;7.29;100.00;98410.31;5609149;31;34470;-66
2023/03/27 07:07:10;;;;;;;;;;;;;;;7.27;100.00;98395.69;5609060;31;33516;-67
2023/03/27 07:10:15;;;;;;;;;;;;;;;7.31;100.00;98396.97;5595860;31;33636;-65
2023/03/27 07:13:20;;;;;;;;;;;;;;;7.32;100.00;98404.66;5609191;31;34451;-65
2023/03/27 07:16:26;;;;;;;;;;;;;;;7.28;100.00;98402.59;5596043;31;33881;-65
2023/03/27 07:19:33;;;;;;;;;;;;;;;7.26;100.00;98408.06;5609819;31;34990;-65
2023/03/27 07:22:41;;;;;;;;;;;;;;;7.21;100.00;98418.38;5609037;31;34228;-67
2023/03/27 07:25:48;;;;;;;;;;;;;;;7.24;100.00;98422.47;5609141;31;33994;-64
2023/03/27 07:28:59;;;;;;;;;;;;;;;7.35;100.00;98422.75;5608859;31;34918;-65
2023/03/27 07:32:05;;;;;;;;;;;;;;;7.31;100.00;98423.34;5609207;31;34169;-65
2023/03/27 07:35:12;;;;;;;;;;;;;;;7.37;100.00;98415.44;5596213;31;33093;-65
2023/03/27 07:38:21;;;;;;;;;;;;;;;7.46;100.00;98418.72;5609280;31;33296;-66
2023/03/27 07:41:29;;;;;;;;;;;;;;;7.43;100.00;98417.28;5609054;31;34231;-65
2023/03/27 07:44:36;;;;;;;;;;;;;;;7.41;100.00;98424.59;5596094;31;34981;-67
2023/03/27 07:47:44;;;;;;;;;;;;;;;7.36;100.00;98426.16;5596310;31;33848;-65
2023/03/27 07:50:49;;;;;;;;;;;;;;;7.33;100.00;98427.38;5608491;31;34412;-65
2023/03/27 07:54:03;;;;;;;;;;;;;;;7.31;100.00;98434.66;5608888;31;34770;-66
2023/03/27 07:57:09;;;;;;;;;;;;;;;7.42;100.00;98441.22;5609480;31;34267;-65
2023/03/27 08:00:16;;;;;;;;;;;;;;;7.42;100.00;98442.03;5608868;31;34853;-66
2023/03/27 08:03:26;;;;;;;;;;;;;;;7.37;100.00;98433.09;5595784;31;33368;-66
2023/03/27 08:06:31;;;;;;;;;;;;;;;7.39;100.00;98431.91;5608587;31;35087;-66
2023/03/27 08:09:38;;;;;;;;;;;;;;;7.37;100.00;98441.81;5608681;31;34156;-66
2023/03/27 08:12:44;;;;;;;;;;;;;;;7.30;100.00;98433.06;5561943;31;34194;-66
2023/03/27 08:15:49;;;;;;;;;;;;;;;7.22;100.00;98420.00;5563206;31;35624;-66
2023/03/27 08:18:56;;;;;;;;;;;;;;;7.15;100.00;98432.34;5562830;31;35088;-66
2023/03/27 08:22:02;;;;;;;;;;;;;;;7.14;100.00;98422.81;5576109;31;34449;-67
2023/03/27 08:25:12;;;;;;;;;;;;;;;7.21;100.00;98425.50;5589652;31;34261;-67
2023/03/27 08:28:17;;;;;;;;;;;;;;;7.24;100.00;98444.38;5576109;31;34825;-68
2023/03/27 08:31:29;;;;;;;;;;;;;;;7.14;100.00;98456.28;5576257;31;34086;-68
2023/03/27 08:34:34;;;;;;;;;;;;;;;7.11;100.00;98456.66;5562630;31;35322;-68
2023/03/27 08:37:42;;;;;;;;;;;;;;;7.07;100.00;98452.78;5575994;31;34527;-66
2023/03/27 08:40:51;;;;;;;;;;;;;;;7.10;100.00;98452.41;5575454;31;34891;-68
2023/03/27 08:43:58;;;;;;;;;;;;;;;7.06;100.00;98448.53;5562711;31;34418;-68
2023/03/27 08:47:09;;;;;;;;;;;;;;;7.06;100.00;98448.53;5576066;31;34756;-67
2023/03/27 08:50:30;;;;;;;;;;;;;;;7.03;100.00;98454.97;5576073;31;34067;-68
2023/03/27 08:53:38;;;;;;;;;;;;;;;7.06;100.00;98457.25;5562888;31;32845;-69
2023/03/27 08:56:47;;;;;;;;;;;;;;;6.99;100.00;98467.72;5575925;31;34522;-69
2023/03/27 08:59:58;;;;;;;;;;;;;;;6.94;100.00;98464.84;5575691;31;34249;-69
2023/03/27 09:03:16;;;;;;;;;;;;;;;6.90;100.00;98466.25;5576279;31;34349;-69
2023/03/27 09:06:24;;;;;;;;;;;;;;;6.96;100.00;98465.50;5588072;31;34215;-69
2023/03/27 09:09:45;;;;;;;;;;;;;;;7.06;100.00;98469.63;5575147;31;34162;-70
2023/03/27 09:13:14;;;;;;;;;;;;;;;7.13;100.00;98476.56;5575749;31;34041;-70
2023/03/27 09:16:26;;;;;;;;;;;;;;;7.17;100.00;98476.97;5588699;31;34833;-70
2023/03/27 09:19:34;;;;;;;;;;;;;;;7.23;100.00;98476.22;5562449;31;32915;-70
2023/03/27 09:22:43;;;;;;;;;;;;;;;7.26;100.00;98478.47;5575077;31;34856;-69
2023/03/27 09:25:54;;;;;;;;;;;;;;;7.35;100.00;98479.97;5577459;31;32989;-68
2023/03/27 09:29:21;;;;;;;;;;;;;;;7.27;100.00;98495.91;5577922;31;34894;-68
2023/03/27 09:32:26;;;;;;;;;;;;;;;7.35;100.00;98495.78;5572457;31;34813;-67
2023/03/27 09:35:40;;;;;;;;;;;;;;;7.29;100.00;98497.38;5577520;31;32639;-67
2023/03/27 09:38:49;;;;;;;;;;;;;;;7.28;100.00;98508.09;5564500;31;33965;-67
2023/03/27 09:42:10;;;;;;;;;;;;;;;7.26;100.00;98512.78;5577610;31;34515;-67
2023/03/27 09:45:15;;;;;;;;;;;;;;;7.22;100.00;98511.50;5564751;31;33987;-67
2023/03/27 09:48:37;;;;;;;;;;;;;;;7.21;100.00;98515.16;5577061;31;34296;-66
2023/03/27 09:51:45;;;;;;;;;;;;;;;7.10;100.00;98513.84;5577651;31;34902;-66
2023/03/27 09:54:55;;;;;;;;;;;;;;;7.11;100.00;98522.59;5590829;31;34766;-67
2023/03/27 09:58:24;;;;;;;;;;;;;;;7.07;100.00;98523.97;5576816;31;33028;-67
2023/03/27 10:01:33;;;;;;;;;;;;;;;7.09;100.00;98532.50;5577178;31;34654;-67
2023/03/27 10:04:38;;;;;;;;;;;;;;;7.02;100.00;98535.06;5590803;31;33903;-66
2023/03/27 10:07:43;;;;;;;;;;;;;;;7.04;100.00;98533.06;5563981;31;34233;-66
2023/03/27 10:11:00;;;;;;;;;;;;;;;7.00;100.00;98537.09;5572165;31;34120;-67
2023/03/27 10:14:18;;;;;;;;;;;;;;;7.00;100.00;98542.38;5609472;31;34997;-66
2023/03/27 10:17:25;;;;;;;;;;;;;;;6.93;100.00;98542.31;5609746;31;34164;-65
2023/03/27 10:20:33;;;;;;;;;;;;;;;6.91;100.00;98539.06;5596986;31;34277;-66
2023/03/27 10:23:47;;;;;;;;;;;;;;;6.82;100.00;98537.56;5609635;31;36519;-66
2023/03/27 10:26:54;;;;;;;;;;;;;;;6.83;100.00;98539.16;5609612;31;34865;-66
2023/03/27 10:30:01;;;;;;;;;;;;;;;6.83;100.00;98540.97;5610233;31;34243;-66
2023/03/27 10:33:08;;;;;;;;;;;;;;;6.78;100.00;98544.19;5610303;31;33513;-66
2023/03/27 10:36:16;;;;;;;;;;;;;;;6.81;100.00;98543.00;5609368;31;34165;-65
2023/03/27 10:39:25;;;;;;;;;;;;;;;6.86;100.00;98553.81;5609417;31;33651;-66
2023/03/27 10:42:31;;;;;;;;;;;;;;;6.87;100.00;98558.06;5610080;31;33158;-67
2023/03/27 10:45:43;;;;;;;;;;;;;;;6.81;100.00;98558.81;5609355;31;34815;-67
2023/03/27 10:49:20;;;;;;;;;;;;;;;6.91;100.00;98562.78;5596475;31;33034;-66
2023/03/27 10:52:33;;;;;;;;;;;;;;;6.92;100.00;98559.13;5575683;31;34362;-65
2023/03/27 10:55:50;;;;;;;;;;;;;;;6.78;100.00;98564.44;5609653;31;34187;-65
2023/03/27 10:59:00;;;;;;;;;;;;;;;6.64;100.00;98563.50;5610208;31;34207;-65
2023/03/27 11:02:15;;;;;;;;;;;;;;;6.58;100.00;98571.34;5609311;31;34030;-66
2023/03/27 11:05:26;;;;;;;;;;;;;;;6.64;100.00;98560.06;5609414;31;34458;-67
2023/03/27 11:08:57;;;;;;;;;;;;;;;6.59;100.00;98560.59;5610036;31;34310;-67
2023/03/27 11:12:09;;;;;;;;;;;;;;;6.56;100.00;98576.81;5609100;31;34339;-67
2023/03/27 11:15:18;;;;;;;;;;;;;;;6.54;100.00;98582.25;5596394;31;33873;-67
2023/03/27 11:18:27;;;;;;;;;;;;;;;6.49;100.00;98574.09;5608963;31;35206;-67
2023/03/27 11:21:44;;;;;;;;;;;;;;;6.43;100.00;98574.84;5596393;31;34518;-67
2023/03/27 11:24:52;;;;;;;;;;;;;;;6.50;100.00;98585.44;5609201;31;34309;-66
2023/03/27 11:27:57;;;;;;;;;;;;;;;6.52;100.00;98580.81;5609279;31;34050;-67
2023/03/27 11:31:13;;;;;;;;;;;;;;;6.53;100.00;98579.81;5609815;31;34343;-66
2023/03/27 11:34:18;;;;;;;;;;;;;;;6.52;100.00;98578.19;5608852;31;34619;-66
2023/03/27 11:37:52;;;;;;;;;;;;;;;6.57;100.00;98581.06;5608961;31;34858;-66
2023/03/27 11:40:57;;;;;;;;;;;;;;;6.48;100.00;98590.91;5609589;31;34224;-65
2023/03/27 11:44:05;;;;;;;;;;;;;;;6.53;100.00;98582.44;5595977;31;34156;-67
2023/03/27 11:47:20;;;;;;;;;;;;;;;6.57;100.00;98578.44;5608460;31;34270;-66
2023/03/27 11:50:35;;;;;;;;;;;;;;;6.54;100.00;98584.06;5609354;31;35121;-66
2023/03/27 11:54:00;;;;;;;;;;;;;;;6.64;100.00;98586.41;5608479;31;34193;-66
2023/03/27 11:57:13;;;;;;;;;;;;;;;6.63;100.00;98588.25;5608593;31;34396;-66
2023/03/27 12:00:24;;;;;;;;;;;;;;;6.70;100.00;98581.22;5595981;31;35019;-66
2023/03/27 12:03:51;;;;;;;;;;;;;;;6.78;100.00;98583.72;5608297;31;33844;-65
2023/03/27 12:07:14;;;;;;;;;;;;;;;6.85;100.00;98589.88;5602115;31;33698;-66
2023/03/27 12:10:42;;;;;;;;;;;;;;;6.91;100.00;98590.97;5597593;31;33127;-67
2023/03/27 12:14:02;;;;;;;;;;;;;;;7.07;100.00;98595.97;5608341;31;34430;-67
2023/03/27 12:17:27;;;;;;;;;;;;;;;7.26;100.00;98591.91;5596436;31;34497;-67
2023/03/27 12:20:40;;;;;;;;;;;;;;;7.54;100.00;98592.72;5608195;31;32946;-67
2023/03/27 12:24:11;;;;;;;;;;;;;;;7.68;100.00;98605.00;5608747;31;35150;-68
2023/03/27 12:27:38;;;;;;;;;;;;;;;7.71;100.00;98607.25;5607841;31;33864;-69
2023/03/27 12:30:55;;;;;;;;;;;;;;;7.76;100.00;98606.66;5607771;31;33908;-69
2023/03/27 12:34:01;;;;;;;;;;;;;;;7.63;100.00;98619.78;5608156;31;34828;-70
2023/03/27 12:37:15;;;;;;;;;;;;;;;7.67;100.00;98624.47;5609126;31;33906;-71
2023/03/27 12:40:24;;;;;;;;;;;;;;;7.76;100.00;98611.94;5608277;31;35042;-70
2023/03/27 12:43:32;;;;;;;;;;;;;;;7.82;100.00;98627.84;5595101;31;32737;-73
2023/03/27 12:47:15;;;;;;;;;;;;;;;7.75;100.00;98626.16;5596056;31;32517;-70
2023/03/27 12:50:26;;;;;;;;;;;;;;;7.70;100.00;98645.19;5608846;31;34416;-69
2023/03/27 12:53:35;;;;;;;;;;;;;;;7.75;100.00;98653.34;5607748;31;35506;-68
2023/03/27 12:56:41;;;;;;;;;;;;;;;7.73;100.00;98652.75;5607924;31;33367;-68
2023/03/27 12:59:56;;;;;;;;;;;;;;;7.69;100.00;98658.59;5608586;31;34336;-67
2023/03/27 13:03:43;;;;;;;;;;;;;;;7.60;100.00;98670.31;5607428;31;32862;-66
2023/03/27 13:06:55;;;;;;;;;;;;;;;7.36;100.00;98679.41;5521664;31;33887;-67
2023/03/27 13:10:09;;;;;;;;;;;;;;;7.40;100.00;98705.25;5608223;31;34307;-66
2023/03/27 13:13:33;;;;;;;;;;;;;;;7.35;100.00;98709.44;5607612;31;34456;-66
2023/03/27 13:16:47;;;;;;;;;;;;;;;7.26;100.00;98686.84;5594919;31;34503;-67
2023/03/27 13:20:13;;;;;;;;;;;;;;;7.11;100.00;98725.63;5607356;31;34153;-66
2023/03/27 13:23:30;;;;;;;;;;;;;;;7.13;100.00;98723.59;5607175;31;34567;-66
2023/03/27 13:26:46;;;;;;;;;;;;;;;7.04;100.00;98740.53;5607268;31;35479;-66
2023/03/27 13:29:52;;;;;;;;;;;;;;;6.95;100.00;98742.47;5607095;31;34436;-64
2023/03/27 13:33:17;;;;;;;;;;;;;;;6.67;100.00;98736.25;5607967;31;34224;-65
2023/03/27 13:36:23;;;;;;;;;;;;;;;6.61;100.00;98761.50;5594506;31;34232;-66
2023/03/27 13:39:38;;;;;;;;;;;;;;;6.54;100.00;98779.00;5594173;31;35152;-66
2023/03/27 13:42:44;;;;;;;;;;;;;;;6.42;100.00;98785.75;5607767;31;34420;-65
2023/03/27 13:46:03;;;;;;;;;;;;;;;6.25;100.00;98756.09;5594878;31;34351;-65
2023/03/27 13:49:32;;;;;;;;;;;;;;;6.18;100.00;98796.50;5606967;31;34287;-67
2023/03/27 13:52:48;;;;;;;;;;;;;;;6.16;100.00;98798.47;5594005;31;34585;-65
2023/03/27 13:56:19;;;;;;;;;;;;;;;6.08;100.00;98817.81;5607319;31;34792;-66
2023/03/27 13:59:38;;;;;;;;;;;;;;;6.04;100.00;98814.72;5606471;31;34949;-63
2023/03/27 14:02:56;;;;;;;;;;;;;;;5.92;100.00;98831.09;5593743;31;33300;-64
2023/03/27 14:06:23;;;;;;;;;;;;;;;5.96;100.00;98869.22;5606686;31;34838;-64
2023/03/27 14:09:55;;;;;;;;;;;;;;;5.92;100.00;98863.50;5593547;31;33411;-64
2023/03/27 14:13:09;;;;;;;;;;;;;;;5.73;100.00;98876.25;5576502;31;35276;-64
2023/03/27 14:16:38;;;;;;;;;;;;;;;5.56;100.00;98899.22;5576414;31;34340;-64
2023/03/27 14:19:49;;;;;;;;;;;;;;;5.47;100.00;98913.41;5551947;31;34475;-64
2023/03/27 14:23:11;;;;;;;;;;;;;;;5.39;100.00;98924.75;5590629;31;34250;-64
2023/03/27 14:26:23;;;;;;;;;;;;;;;5.33;100.00;98908.81;5577082;31;34243;-65
2023/03/27 14:29:31;;;;;;;;;;;;;;;5.20;100.00;98935.66;5576693;31;35098;-63
2023/03/27 14:32:41;;;;;;;;;;;;;;;4.99;100.00;98964.28;5576070;31;34111;-65
2023/03/27 14:35:53;;;;;;;;;;;;;;;5.04;100.00;98964.59;5575979;31;33075;-64
2023/03/27 14:39:13;;;;;;;;;;;;;;;4.90;100.00;98949.50;5590233;31;34938;-64
2023/03/27 14:42:19;;;;;;;;;;;;;;;5.01;100.00;98967.56;5562580;31;35788;-64
2023/03/27 14:45:32;;;;;;;;;;;;;;;5.00;100.00;98986.94;5562017;31;34610;-63
2023/03/27 14:48:41;;;;;;;;;;;;;;;5.04;100.00;98999.59;5562971;31;34839;-64
2023/03/27 14:51:52;;;;;;;;;;;;;;;5.05;100.00;98997.78;5590221;31;34380;-66
2023/03/27 14:55:02;;;;;;;;;;;;;;;5.04;100.00;99009.28;5563622;31;33612;-66
2023/03/27 14:58:13;;;;;;;;;;;;;;;5.04;100.00;99012.75;5576886;31;34410;-65
2023/03/27 15:01:18;;;;;;;;;;;;;;;5.09;100.00;99006.97;5589804;31;34200;-65
2023/03/27 15:04:28;;;;;;;;;;;;;;;5.07;100.00;99045.78;5589837;31;34302;-65
2023/03/27 15:07:43;;;;;;;;;;;;;;;5.01;100.00;99033.28;5577425;31;35066;-65
2023/03/27 15:10:53;;;;;;;;;;;;;;;4.86;100.00;99053.31;5584215;31;34311;-66
2023/03/27 15:14:01;;;;;;;;;;;;;;;4.83;100.00;99051.84;5608864;31;33532;-65
2023/03/27 15:17:13;;;;;;;;;;;;;;;4.70;100.00;99070.69;5596024;31;34951;-65
2023/03/27 15:20:23;;;;;;;;;;;;;;;4.69;100.00;99090.09;5595761;31;34680;-65
2023/03/27 15:23:39;;;;;;;;;;;;;;;4.58;100.00;99097.44;5607913;31;34704;-65
2023/03/27 15:26:47;;;;;;;;;;;;;;;4.35;100.00;99110.38;5609610;31;34736;-64
2023/03/27 15:29:58;;;;;;;;;;;;;;;4.35;100.00;99126.13;5608629;31;32875;-65
2023/03/27 15:33:11;;;;;;;;;;;;;;;4.24;100.00;99106.22;5608792;31;34270;-66
2023/03/27 15:36:27;;;;;;;;;;;;;;;4.19;100.00;99126.03;5608931;31;34264;-64
2023/03/27 15:39:37;;;;;;;;;;;;;;;4.22;100.00;99128.34;5608622;31;34661;-65
2023/03/27 15:42:48;;;;;;;;;;;;;;;4.11;100.00;99133.88;5608342;31;34554;-65
2023/03/27 15:46:00;;;;;;;;;;;;;;;4.10;100.00;99148.81;5608751;31;34114;-64
2023/03/27 15:49:33;;;;;;;;;;;;;;;4.05;100.00;99184.38;5596277;31;33165;-65
2023/03/27 15:52:49;;;;;;;;;;;;;;;4.00;100.00;99181.38;5601916;31;33890;-65
2023/03/27 15:55:58;;;;;;;;;;;;;;;4.01;100.00;99170.75;5608182;31;33808;-63
2023/03/27 15:59:08;;;;;;;;;;;;;;;3.87;100.00;99200.97;5608236;31;34246;-63
2023/03/27 16:02:17;;;;;;;;;;;;;;;3.93;100.00;99197.75;5595856;31;32906;-64
2023/03/27 16:05:25;;;;;;;;;;;;;;;3.94;100.00;99245.78;5608094;31;32807;-64
2023/03/27 16:08:36;;;;;;;;;;;;;;;3.90;100.00;99226.91;5608462;31;34779;-64
2023/03/27 16:11:47;;;;;;;;;;;;;;;3.89;100.00;99238.37;5608244;31;34043;-65
2023/03/27 16:14:57;;;;;;;;;;;;;;;3.92;100.00;99259.06;5608960;31;34334;-64
2023/03/27 16:18:13;;;;;;;;;;;;;;;3.89;100.00;99267.25;5608839;31;34855;-66
2023/03/27 16:21:21;;;;;;;;;;;;;;;3.89;100.00;99296.09;5608765;31;33896;-65
2023/03/27 16:24:29;;;;;;;;;;;;;;;3.90;100.00;99283.81;5607981;31;33974;-65
2023/03/27 16:27:41;;;;;;;;;;;;;;;3.91;100.00;99322.19;5608300;31;34851;-66
2023/03/27 16:30:50;;;;;;;;;;;;;;;3.86;100.00;99288.53;5607901;31;33935;-65
2023/03/27 16:34:00;;;;;;;;;;;;;;;3.85;100.00;99307.87;5595015;31;35412;-65
2023/03/27 16:37:08;;;;;;;;;;;;;;;3.86;100.00;99322.66;5595193;31;32723;-64
2023/03/27 16:40:21;;;;;;;;;;;;;;;3.90;100.00;99317.91;5608742;31;33896;-64
2023/03/27 16:43:33;;;;;;;;;;;;;;;3.91;98.46;99332.69;5608590;31;34718;-65